Time;durP1;ratioP1;P1;durP2;ratioP2;P2;SDS_P1;SDS_P2;PMS_P1;PMS_P2;Temp;Humidity;BMP_temperature;BMP_pressure;BME280_temperature;BME280_humidity;BME280_pressure;Samples;Min_cycle;Max_cycle;Signal;HPM_P1;HPM_P2
2021/09/17 00:01:34;;;;;;;33.20;17.52;;;12.40;62.70;;;;;;5053488;28;20086;-82
2021/09/17 00:04:01;;;;;;;28.85;16.02;;;12.40;62.50;;;;;;5054066;28;20111;-82
2021/09/17 00:06:28;;;;;;;31.88;17.38;;;12.40;62.60;;;;;;5053930;28;20072;-82
2021/09/17 00:08:53;;;;;;;33.53;17.38;;;12.30;62.80;;;;;;5051829;28;20041;-82
2021/09/17 00:11:19;;;;;;;32.40;16.67;;;12.30;62.60;;;;;;5052308;28;20037;-82
2021/09/17 00:13:46;;;;;;;28.55;16.85;;;12.20;63.00;;;;;;5052529;28;20029;-82
2021/09/17 00:16:11;;;;;;;32.72;16.67;;;12.20;63.10;;;;;;5052375;28;20057;-83
2021/09/17 00:18:37;;;;;;;26.70;15.35;;;12.20;63.00;;;;;;5052153;28;20041;-83
2021/09/17 00:21:03;;;;;;;28.20;16.45;;;12.20;63.20;;;;;;5053348;28;20376;-83
2021/09/17 00:23:28;;;;;;;32.72;17.25;;;12.10;63.30;;;;;;5052039;28;20029;-83
2021/09/17 00:25:54;;;;;;;29.08;15.68;;;12.10;63.60;;;;;;5053071;28;20025;-83
2021/09/17 00:28:20;;;;;;;32.33;16.70;;;12.10;63.30;;;;;;5035653;28;20040;-83
2021/09/17 00:30:45;;;;;;;31.23;17.20;;;12.10;63.70;;;;;;5053630;28;20078;-82
2021/09/17 00:33:11;;;;;;;32.85;17.08;;;12.10;63.60;;;;;;5052174;28;20056;-82
2021/09/17 00:35:37;;;;;;;33.70;18.25;;;12.00;63.70;;;;;;5051736;28;20383;-82
2021/09/17 00:38:04;;;;;;;30.35;17.15;;;12.00;64.00;;;;;;5051998;28;20124;-82
2021/09/17 00:40:30;;;;;;;33.88;18.10;;;12.00;64.20;;;;;;5051910;28;20475;-82
2021/09/17 00:42:56;;;;;;;30.63;16.25;;;12.00;64.10;;;;;;5052940;28;20091;-82
2021/09/17 00:45:22;;;;;;;29.85;16.63;;;11.90;64.30;;;;;;5055404;28;20067;-82
2021/09/17 00:47:48;;;;;;;29.35;17.38;;;11.90;64.50;;;;;;5055896;28;20033;-82
2021/09/17 00:50:16;;;;;;;28.67;16.48;;;11.90;64.50;;;;;;5056428;28;20032;-82
2021/09/17 00:52:45;;;;;;;30.65;16.33;;;11.90;64.40;;;;;;5057106;28;20025;-82
2021/09/17 00:55:11;;;;;;;29.83;16.40;;;11.90;64.40;;;;;;5055285;28;20048;-81
2021/09/17 00:57:37;;;;;;;28.88;15.45;;;11.80;64.40;;;;;;5057808;28;20492;-81
2021/09/17 01:00:10;;;;;;;28.15;15.50;;;11.80;64.40;;;;;;5059879;28;20032;-83
2021/09/17 01:02:36;;;;;;;29.10;15.73;;;11.80;64.80;;;;;;5056693;28;20024;-83
2021/09/17 01:05:04;;;;;;;31.23;16.10;;;11.80;64.70;;;;;;5055946;28;20490;-82
2021/09/17 01:07:30;;;;;;;28.95;15.60;;;11.80;65.00;;;;;;5057766;28;20040;-83
2021/09/17 01:09:57;;;;;;;30.27;15.88;;;11.80;65.00;;;;;;5041445;28;20025;-82
2021/09/17 01:12:23;;;;;;;29.70;16.55;;;11.80;65.10;;;;;;5062938;28;20044;-82
2021/09/17 01:14:50;;;;;;;29.15;15.38;;;11.70;64.90;;;;;;5074692;28;20036;-81
2021/09/17 01:17:18;;;;;;;30.13;15.00;;;11.70;64.90;;;;;;5073194;28;20032;-82
2021/09/17 01:19:45;;;;;;;24.73;14.30;;;11.70;65.00;;;;;;5068986;28;20035;-81
2021/09/17 01:22:12;;;;;;;26.05;14.30;;;11.70;65.10;;;;;;5071944;28;20028;-83
2021/09/17 01:24:39;;;;;;;25.27;14.18;;;11.70;65.00;;;;;;5071729;28;20458;-82
2021/09/17 01:27:06;;;;;;;25.85;14.80;;;11.60;65.00;;;;;;5070349;28;20926;-82
2021/09/17 01:29:32;;;;;;;25.58;14.25;;;11.60;65.30;;;;;;5055489;28;20036;-83
2021/09/17 01:31:59;;;;;;;24.50;13.65;;;11.60;65.40;;;;;;5055618;28;20056;-84
2021/09/17 01:34:25;;;;;;;26.05;13.15;;;11.60;65.20;;;;;;5055299;28;20037;-82
2021/09/17 01:36:52;;;;;;;27.48;15.32;;;11.60;65.10;;;;;;5055910;28;20036;-82
2021/09/17 01:39:20;;;;;;;27.67;15.77;;;11.50;65.80;;;;;;5071199;28;20171;-83
2021/09/17 01:41:47;;;;;;;26.27;15.50;;;11.50;65.60;;;;;;5054969;28;20494;-82
2021/09/17 01:44:12;;;;;;;29.83;15.65;;;11.50;66.00;;;;;;5054690;28;20024;-82
2021/09/17 01:46:38;;;;;;;27.23;15.48;;;11.50;66.10;;;;;;5056261;28;20037;-82
2021/09/17 01:49:05;;;;;;;31.08;14.60;;;11.50;65.90;;;;;;5054577;28;20029;-82
2021/09/17 01:51:31;;;;;;;27.90;15.02;;;11.50;65.90;;;;;;5055923;28;20068;-82
2021/09/17 01:53:57;;;;;;;24.10;14.02;;;11.50;65.90;;;;;;5055972;28;20052;-82
2021/09/17 01:56:23;;;;;;;24.05;12.80;;;11.40;66.10;;;;;;5053772;28;20506;-82
2021/09/17 01:58:50;;;;;;;22.83;13.15;;;11.40;65.90;;;;;;5055583;28;20490;-81
2021/09/17 02:01:17;;;;;;;29.58;14.98;;;11.40;65.90;;;;;;5053895;28;20545;-81
2021/09/17 02:03:45;;;;;;;28.02;14.50;;;11.40;66.10;;;;;;5070881;28;20051;-82
2021/09/17 02:06:18;;;;;;;23.17;14.07;;;11.30;66.10;;;;;;5071069;28;20087;-82
2021/09/17 02:08:44;;;;;;;24.45;13.50;;;11.30;66.70;;;;;;5071416;28;20382;-82
2021/09/17 02:11:10;;;;;;;27.90;14.13;;;11.30;66.90;;;;;;5070351;28;20021;-82
2021/09/17 02:13:35;;;;;;;26.55;14.05;;;11.20;66.70;;;;;;5055284;28;20059;-83
2021/09/17 02:16:01;;;;;;;27.15;14.00;;;11.20;66.70;;;;;;5055329;28;20463;-84
2021/09/17 02:18:27;;;;;;;21.80;12.55;;;11.20;66.90;;;;;;5070521;28;20025;-83
2021/09/17 02:20:52;;;;;;;23.60;13.45;;;11.20;67.70;;;;;;5054831;28;20102;-83
2021/09/17 02:23:18;;;;;;;22.55;12.50;;;11.20;67.10;;;;;;5055374;28;20364;-82
2021/09/17 02:25:44;;;;;;;22.55;12.57;;;11.10;67.10;;;;;;5055535;28;20468;-83
2021/09/17 02:28:10;;;;;;;22.85;12.63;;;11.10;67.80;;;;;;5055149;28;20487;-82
2021/09/17 02:30:36;;;;;;;23.67;12.50;;;11.10;67.30;;;;;;5070358;28;20033;-82
2021/09/17 02:33:02;;;;;;;24.13;12.65;;;11.10;67.50;;;;;;5055788;28;20112;-82
2021/09/17 02:35:27;;;;;;;19.63;11.63;;;11.10;67.70;;;;;;5070825;28;20036;-81
2021/09/17 02:37:53;;;;;;;20.42;11.77;;;11.10;67.70;;;;;;5070229;28;20040;-81
2021/09/17 02:40:20;;;;;;;21.35;11.75;;;11.10;67.80;;;;;;5054568;28;20029;-81
2021/09/17 02:42:46;;;;;;;19.65;10.93;;;11.00;68.50;;;;;;5036762;28;20041;-84
2021/09/17 02:45:13;;;;;;;18.15;10.07;;;11.00;68.00;;;;;;5069700;28;20025;-82
2021/09/17 02:47:40;;;;;;;21.70;10.60;;;11.00;67.80;;;;;;5069934;28;20060;-81
2021/09/17 02:50:08;;;;;;;15.73;9.05;;;11.10;68.00;;;;;;5069864;28;20356;-83
2021/09/17 02:52:34;;;;;;;14.13;8.40;;;11.10;67.80;;;;;;5070849;28;20376;-81
2021/09/17 02:55:01;;;;;;;14.30;8.55;;;11.10;67.60;;;;;;5071058;28;20040;-81
2021/09/17 02:57:26;;;;;;;13.63;8.63;;;11.10;67.60;;;;;;5052619;28;20053;-83
2021/09/17 02:59:52;;;;;;;18.45;9.70;;;11.00;67.90;;;;;;5069721;28;20036;-81
2021/09/17 03:02:18;;;;;;;14.20;7.95;;;11.00;67.80;;;;;;5070345;28;20044;-81
2021/09/17 03:04:45;;;;;;;14.55;8.20;;;11.10;67.80;;;;;;5069062;28;20531;-82
2021/09/17 03:07:10;;;;;;;15.32;8.07;;;11.10;67.80;;;;;;5053819;28;20051;-83
2021/09/17 03:09:36;;;;;;;15.88;8.63;;;11.10;67.80;;;;;;5069647;28;20481;-82
2021/09/17 03:12:02;;;;;;;15.63;8.50;;;11.10;67.80;;;;;;5054385;28;20039;-83
2021/09/17 03:14:28;;;;;;;12.57;7.53;;;11.10;67.70;;;;;;5069266;28;20043;-82
2021/09/17 03:16:54;;;;;;;13.35;7.88;;;11.10;67.60;;;;;;5068645;28;20115;-82
2021/09/17 03:19:20;;;;;;;15.93;8.15;;;11.10;67.60;;;;;;5068949;28;20436;-83
2021/09/17 03:21:45;;;;;;;12.98;6.88;;;11.10;67.90;;;;;;5068232;28;20057;-82
2021/09/17 03:24:12;;;;;;;12.30;7.35;;;11.10;67.60;;;;;;5053844;28;20025;-83
2021/09/17 03:26:39;;;;;;;13.63;7.75;;;11.10;68.00;;;;;;5052842;28;20029;-83
2021/09/17 03:29:04;;;;;;;14.55;7.65;;;11.10;68.00;;;;;;5061817;28;20491;-82
2021/09/17 03:31:30;;;;;;;13.30;7.90;;;11.10;68.10;;;;;;5050161;28;20037;-83
2021/09/17 03:33:58;;;;;;;14.40;8.23;;;11.10;67.80;;;;;;5072279;28;20043;-81
2021/09/17 03:36:25;;;;;;;14.68;8.20;;;11.10;68.40;;;;;;5060342;28;20039;-83
2021/09/17 03:38:51;;;;;;;12.65;7.25;;;11.10;68.00;;;;;;5052479;28;20025;-81
2021/09/17 03:41:16;;;;;;;12.55;6.85;;;11.10;68.00;;;;;;5069048;28;20029;-81
2021/09/17 03:43:42;;;;;;;13.20;7.50;;;11.10;67.90;;;;;;5068618;28;20027;-82
2021/09/17 03:46:08;;;;;;;19.15;8.70;;;11.10;68.40;;;;;;5060781;28;20029;-82
2021/09/17 03:48:34;;;;;;;15.13;9.30;;;11.10;68.40;;;;;;5033746;28;20460;-81
2021/09/17 03:50:59;;;;;;;17.65;9.13;;;11.20;68.50;;;;;;5048257;28;20147;-82
2021/09/17 03:53:25;;;;;;;16.73;8.93;;;11.20;68.50;;;;;;5048429;28;20029;-81
2021/09/17 03:55:51;;;;;;;18.48;9.30;;;11.20;68.70;;;;;;5033191;28;20068;-82
2021/09/17 03:58:17;;;;;;;13.25;7.85;;;11.20;68.50;;;;;;5015796;28;20124;-82
2021/09/17 04:00:43;;;;;;;14.48;7.75;;;11.10;68.40;;;;;;5038532;28;20380;-83
2021/09/17 04:03:09;;;;;;;13.35;7.63;;;11.20;68.40;;;;;;5069317;28;20032;-82
2021/09/17 04:05:34;;;;;;;14.82;7.90;;;11.20;68.40;;;;;;5068948;28;20467;-83
2021/09/17 04:08:00;;;;;;;14.73;8.38;;;11.20;68.40;;;;;;5053286;28;20490;-84
2021/09/17 04:10:26;;;;;;;16.30;8.13;;;11.20;68.40;;;;;;5053588;28;20029;-83
2021/09/17 04:12:52;;;;;;;12.95;7.55;;;11.20;68.50;;;;;;5068827;28;20025;-83
2021/09/17 04:15:18;;;;;;;14.82;8.38;;;11.20;68.50;;;;;;5052952;28;20075;-82
2021/09/17 04:17:44;;;;;;;16.38;8.90;;;11.20;68.80;;;;;;5052591;28;20033;-83
2021/09/17 04:20:11;;;;;;;16.00;7.55;;;11.20;69.00;;;;;;5056621;28;20025;-85
2021/09/17 04:22:37;;;;;;;13.02;7.45;;;11.20;68.90;;;;;;5036028;28;20025;-84
2021/09/17 04:25:04;;;;;;;14.35;7.60;;;11.20;68.80;;;;;;5037246;28;20029;-83
2021/09/17 04:27:30;;;;;;;13.57;7.30;;;11.20;68.70;;;;;;5037002;28;20034;-82
2021/09/17 04:29:56;;;;;;;13.55;7.80;;;11.30;68.50;;;;;;5037079;28;20028;-82
2021/09/17 04:32:25;;;;;;;12.15;7.03;;;11.30;68.90;;;;;;5052339;28;20025;-83
2021/09/17 04:34:50;;;;;;;12.82;6.82;;;11.30;68.50;;;;;;5052618;28;20021;-85
2021/09/17 04:37:17;;;;;;;12.30;7.38;;;11.40;68.60;;;;;;5041362;28;20045;-83
2021/09/17 04:39:44;;;;;;;13.40;7.90;;;11.40;68.60;;;;;;5053125;28;20025;-81
2021/09/17 04:42:12;;;;;;;12.88;7.28;;;11.40;68.60;;;;;;5044105;28;20025;-87
2021/09/17 04:44:38;;;;;;;15.32;7.60;;;11.50;68.40;;;;;;5055724;28;20090;-83
2021/09/17 04:47:04;;;;;;;12.57;6.90;;;11.50;68.50;;;;;;5056220;28;20470;-83
2021/09/17 04:49:30;;;;;;;12.07;6.97;;;11.50;68.40;;;;;;5070889;28;20043;-82
2021/09/17 04:51:55;;;;;;;13.45;7.85;;;11.60;68.40;;;;;;5056978;28;20378;-84
2021/09/17 04:54:21;;;;;;;13.85;7.22;;;11.60;68.40;;;;;;5035809;28;20087;-84
2021/09/17 04:56:47;;;;;;;11.73;7.15;;;11.70;68.50;;;;;;5033205;28;20067;-83
2021/09/17 04:59:13;;;;;;;11.65;6.63;;;11.80;68.30;;;;;;5036403;28;20030;-84
2021/09/17 05:01:39;;;;;;;13.93;6.90;;;11.90;68.20;;;;;;5016983;28;20037;-85
2021/09/17 05:04:05;;;;;;;12.40;6.78;;;12.00;68.60;;;;;;5032972;28;20028;-84
2021/09/17 05:06:31;;;;;;;12.80;6.50;;;12.10;67.90;;;;;;5047203;28;20037;-83
2021/09/17 05:08:58;;;;;;;12.38;6.85;;;12.20;67.80;;;;;;5069481;28;20036;-85
2021/09/17 05:11:24;;;;;;;10.88;6.38;;;12.30;67.60;;;;;;5057482;28;20060;-83
2021/09/17 05:13:52;;;;;;;14.52;7.22;;;12.40;67.50;;;;;;5056620;28;20083;-83
2021/09/17 05:16:18;;;;;;;12.25;7.15;;;12.50;67.50;;;;;;5054663;28;20037;-82
2021/09/17 05:18:44;;;;;;;12.95;6.95;;;12.60;67.10;;;;;;5056087;28;20490;-83
2021/09/17 05:21:12;;;;;;;11.85;6.90;;;12.80;66.90;;;;;;5038460;28;20036;-83
2021/09/17 05:23:37;;;;;;;12.70;6.85;;;12.90;66.80;;;;;;5054700;28;20036;-83
2021/09/17 05:26:10;;;;;;;12.65;6.88;;;13.00;66.70;;;;;;5055052;28;20375;-82
2021/09/17 05:28:35;;;;;;;10.82;6.65;;;13.10;66.50;;;;;;5071512;28;20029;-82
2021/09/17 05:31:01;;;;;;;11.18;6.78;;;13.20;66.40;;;;;;5056435;28;20039;-81
2021/09/17 05:33:28;;;;;;;10.75;6.13;;;13.40;66.20;;;;;;5057844;28;20459;-82
2021/09/17 05:35:54;;;;;;;9.68;5.70;;;13.50;65.90;;;;;;5056347;28;20055;-83
2021/09/17 05:38:19;;;;;;;9.70;5.80;;;13.70;65.70;;;;;;5071843;28;20056;-82
2021/09/17 05:40:48;;;;;;;12.25;6.50;;;13.90;65.60;;;;;;5071689;28;20020;-83
2021/09/17 05:43:14;;;;;;;16.83;7.40;;;14.00;65.20;;;;;;5055685;28;20045;-85
2021/09/17 05:45:40;;;;;;;11.98;6.70;;;14.20;64.90;;;;;;5054220;28;20040;-83
2021/09/17 05:48:06;;;;;;;10.98;6.30;;;14.40;64.60;;;;;;5055477;28;20033;-84
2021/09/17 05:50:32;;;;;;;10.65;5.68;;;14.60;64.40;;;;;;5051408;28;20067;-84
2021/09/17 05:52:57;;;;;;;12.63;6.60;;;14.70;64.70;;;;;;5055354;28;20048;-85
2021/09/17 05:55:32;;;;;;;12.95;6.45;;;14.90;63.60;;;;;;5053555;28;20095;-87
2021/09/17 05:57:59;;;;;;;11.52;6.28;;;15.10;63.00;;;;;;5071210;28;20060;-84
2021/09/17 06:00:42;;;;;;;11.88;6.63;;;15.30;62.40;;;;;;5071334;28;20082;-84
2021/09/17 06:03:10;;;;;;;11.77;7.75;;;15.50;62.10;;;;;;5057443;28;20033;-84
2021/09/17 06:05:36;;;;;;;118.57;87.72;;;15.70;61.30;;;;;;5055497;28;20099;-91
2021/09/17 06:08:02;;;;;;;40.92;30.48;;;15.90;60.80;;;;;;5055691;28;20028;-83
2021/09/17 06:10:28;;;;;;;25.17;17.45;;;16.10;60.30;;;;;;5038318;28;20041;-83
2021/09/17 06:12:53;;;;;;;19.83;11.90;;;16.20;59.80;;;;;;5054006;28;20026;-83
2021/09/17 06:15:19;;;;;;;19.98;12.02;;;16.40;59.50;;;;;;5053907;28;20052;-84
2021/09/17 06:17:46;;;;;;;19.00;11.20;;;16.60;59.50;;;;;;5055102;28;20025;-85
2021/09/17 06:20:13;;;;;;;19.73;10.90;;;16.70;59.10;;;;;;5053088;28;20025;-83
2021/09/17 06:22:41;;;;;;;17.48;8.88;;;16.90;58.40;;;;;;5067086;28;20031;-81
2021/09/17 06:25:07;;;;;;;16.25;8.73;;;17.10;57.90;;;;;;5054836;28;20372;-83
2021/09/17 06:27:33;;;;;;;20.35;9.50;;;17.20;57.10;;;;;;5054766;28;20055;-84
2021/09/17 06:29:59;;;;;;;17.45;8.65;;;17.30;56.70;;;;;;5030376;28;20100;-83
2021/09/17 06:32:25;;;;;;;19.35;8.27;;;17.40;56.60;;;;;;5059900;28;20037;-82
2021/09/17 06:34:51;;;;;;;16.38;8.85;;;17.50;56.60;;;;;;5054480;28;20029;-81
2021/09/17 06:37:16;;;;;;;14.20;7.75;;;17.60;56.40;;;;;;5054415;28;20049;-80
2021/09/17 06:39:42;;;;;;;12.65;7.00;;;17.80;56.50;;;;;;5052233;28;20451;-80
2021/09/17 06:42:08;;;;;;;13.57;7.93;;;18.00;55.80;;;;;;5069964;28;20053;-82
2021/09/17 06:44:35;;;;;;;13.93;7.90;;;18.10;55.20;;;;;;5069800;28;20029;-81
2021/09/17 06:47:00;;;;;;;13.07;7.97;;;18.20;55.20;;;;;;5052617;28;20029;-81
2021/09/17 06:49:27;;;;;;;13.35;6.80;;;18.50;54.80;;;;;;5076986;28;20037;-79
2021/09/17 06:51:53;;;;;;;13.48;6.68;;;18.60;54.20;;;;;;5064419;28;20021;-79
2021/09/17 06:54:18;;;;;;;10.77;6.32;;;18.80;54.20;;;;;;5078841;28;20024;-81
2021/09/17 06:56:44;;;;;;;10.77;5.70;;;18.90;53.80;;;;;;5058382;28;20049;-82
2021/09/17 06:59:10;;;;;;;12.93;7.07;;;19.10;53.30;;;;;;5060735;28;20394;-83
2021/09/17 07:01:35;;;;;;;12.60;7.22;;;19.30;53.00;;;;;;5069878;28;20088;-82
2021/09/17 07:04:01;;;;;;;14.73;7.53;;;19.50;52.90;;;;;;5058239;28;20526;-83
2021/09/17 07:06:27;;;;;;;12.00;6.72;;;19.70;52.10;;;;;;5073633;28;20029;-84
2021/09/17 07:08:54;;;;;;;10.77;5.65;;;19.90;51.70;;;;;;5076367;28;20077;-81
2021/09/17 07:11:22;;;;;;;12.23;5.57;;;20.00;50.90;;;;;;5068165;28;20035;-81
2021/09/17 07:13:48;;;;;;;8.43;5.28;;;20.20;50.50;;;;;;5054232;28;20401;-82
2021/09/17 07:16:14;;;;;;;10.32;6.00;;;20.30;50.70;;;;;;5069751;28;20155;-81
2021/09/17 07:18:39;;;;;;;7.47;5.05;;;20.50;50.30;;;;;;5054253;28;20025;-81
2021/09/17 07:21:05;;;;;;;9.05;5.00;;;20.60;49.70;;;;;;5069540;28;20040;-81
2021/09/17 07:23:31;;;;;;;10.85;5.70;;;20.80;49.70;;;;;;5069284;28;20025;-81
2021/09/17 07:25:57;;;;;;;8.20;4.55;;;21.00;49.10;;;;;;5053964;28;20083;-82
2021/09/17 07:28:22;;;;;;;8.07;4.20;;;21.20;49.00;;;;;;5069505;28;20033;-81
2021/09/17 07:30:48;;;;;;;8.40;4.57;;;21.50;49.10;;;;;;5069012;28;20021;-81
2021/09/17 07:33:14;;;;;;;9.27;4.30;;;21.80;48.20;;;;;;5069410;28;20025;-80
2021/09/17 07:35:40;;;;;;;8.85;5.00;;;22.00;47.60;;;;;;5054315;28;20474;-81
2021/09/17 07:38:06;;;;;;;7.18;3.90;;;22.20;47.00;;;;;;5069373;28;20033;-82
2021/09/17 07:40:31;;;;;;;8.55;4.20;;;22.30;47.30;;;;;;5069408;28;20074;-79
2021/09/17 07:42:57;;;;;;;9.70;4.68;;;22.60;46.80;;;;;;5069232;28;20356;-81
2021/09/17 07:45:24;;;;;;;13.00;4.80;;;22.90;47.70;;;;;;5065027;28;20025;-85
2021/09/17 07:47:51;;;;;;;12.48;4.70;;;23.30;46.20;;;;;;5052736;28;20056;-85
2021/09/17 07:50:17;;;;;;;9.52;5.50;;;23.60;45.70;;;;;;5059641;28;20021;-85
2021/09/17 07:52:44;;;;;;;9.77;6.28;;;23.80;44.80;;;;;;5052015;28;20463;-85
2021/09/17 07:55:11;;;;;;;12.38;5.75;;;24.10;45.00;;;;;;5059662;28;20052;-86
2021/09/17 07:57:37;;;;;;;16.83;5.90;;;24.40;44.00;;;;;;5050931;28;20049;-84
2021/09/17 08:00:09;;;;;;;7.90;4.65;;;24.70;43.10;;;;;;5050974;28;20036;-84
2021/09/17 08:02:34;;;;;;;10.85;4.05;;;25.00;42.90;;;;;;5050095;28;20091;-85
2021/09/17 08:05:00;;;;;;;9.05;4.40;;;25.20;43.00;;;;;;5051163;28;20025;-85
2021/09/17 08:07:26;;;;;;;9.02;4.22;;;25.50;42.30;;;;;;5052839;28;20037;-84
2021/09/17 08:09:52;;;;;;;6.65;4.00;;;25.80;41.60;;;;;;5059293;28;20029;-86
2021/09/17 08:12:18;;;;;;;6.70;4.05;;;26.10;41.20;;;;;;5053675;28;20075;-83
2021/09/17 08:14:43;;;;;;;8.27;4.43;;;26.20;41.30;;;;;;5051997;28;20033;-80
2021/09/17 08:17:09;;;;;;;8.32;4.00;;;26.50;40.90;;;;;;5053278;28;20403;-79
2021/09/17 08:19:38;;;;;;;9.60;5.15;;;26.60;40.80;;;;;;5066163;28;20083;-81
2021/09/17 08:22:04;;;;;;;10.55;5.72;;;26.80;40.80;;;;;;5061973;28;20120;-85
2021/09/17 08:24:29;;;;;;;6.43;4.50;;;27.10;40.10;;;;;;5063809;28;20024;-82
2021/09/17 08:26:57;;;;;;;10.45;4.30;;;27.20;40.30;;;;;;5063751;28;20040;-81
2021/09/17 08:29:23;;;;;;;9.20;4.13;;;27.50;39.70;;;;;;5048921;28;20028;-84
2021/09/17 08:31:49;;;;;;;7.55;3.78;;;27.60;39.70;;;;;;5048064;28;20115;-82
2021/09/17 08:34:15;;;;;;;12.63;4.75;;;27.90;39.30;;;;;;5047987;28;20029;-82
2021/09/17 08:36:41;;;;;;;8.30;4.18;;;28.00;39.10;;;;;;5064159;28;20082;-82
2021/09/17 08:39:08;;;;;;;6.88;4.10;;;28.00;38.80;;;;;;5047828;28;20033;-82
2021/09/17 08:41:34;;;;;;;10.35;4.40;;;28.10;38.50;;;;;;5063536;28;20413;-85
2021/09/17 08:44:00;;;;;;;7.32;3.80;;;28.10;38.30;;;;;;5048802;28;20040;-83
2021/09/17 08:46:26;;;;;;;6.50;3.75;;;28.10;38.70;;;;;;5047913;28;20029;-82
2021/09/17 08:48:52;;;;;;;6.97;4.07;;;28.20;38.40;;;;;;5063377;28;20180;-85
2021/09/17 08:51:20;;;;;;;8.55;4.45;;;28.10;38.70;;;;;;5064378;28;20025;-81
2021/09/17 08:53:46;;;;;;;8.20;4.93;;;28.20;38.80;;;;;;5063179;28;20029;-82
2021/09/17 08:56:15;;;;;;;7.85;4.22;;;28.40;38.70;;;;;;5063119;28;20465;-84
2021/09/17 08:58:47;;;;;;;10.23;5.17;;;28.50;38.20;;;;;;5064231;28;20040;-80
2021/09/17 09:01:28;;;;;;;6.25;4.18;;;28.50;38.70;;;;;;5064084;28;20683;-81
2021/09/17 09:03:59;;;;;;;8.43;4.68;;;28.70;38.30;;;;;;5064885;28;20033;-81
2021/09/17 09:06:25;;;;;;;7.85;4.50;;;29.00;39.00;;;;;;5051577;28;20228;-81
2021/09/17 09:08:51;;;;;;;7.30;4.35;;;29.40;38.70;;;;;;5066410;28;20039;-83
2021/09/17 09:11:18;;;;;;;6.80;4.18;;;29.70;38.30;;;;;;5067980;28;20033;-82
2021/09/17 09:14:06;;;;;;;7.07;4.10;;;30.10;37.20;;;;;;5067255;28;20035;-80
2021/09/17 09:16:47;;;;;;;5.10;3.65;;;30.30;37.10;;;;;;5067801;28;20407;-82
2021/09/17 09:19:33;;;;;;;10.95;3.90;;;30.30;37.10;;;;;;5050491;28;20036;-85
2021/09/17 09:22:02;;;;;;;5.95;3.83;;;30.20;36.90;;;;;;5066411;28;20029;-81
2021/09/17 09:24:28;;;;;;;6.25;3.50;;;30.00;36.90;;;;;;5067168;28;20036;-83
2021/09/17 09:27:08;;;;;;;8.70;4.10;;;29.90;37.50;;;;;;5052022;28;20036;-80
2021/09/17 09:29:38;;;;;;;7.45;3.80;;;30.00;37.20;;;;;;5067401;28;20048;-83
2021/09/17 09:32:04;;;;;;;9.90;4.43;;;30.20;37.80;;;;;;5066439;28;20438;-81
2021/09/17 09:34:48;;;;;;;7.80;4.00;;;30.40;37.40;;;;;;5051491;28;20040;-85
2021/09/17 09:37:16;;;;;;;8.05;4.57;;;30.60;37.30;;;;;;5066184;28;20395;-81
2021/09/17 09:39:49;;;;;;;8.25;4.10;;;30.70;37.20;;;;;;5066738;28;20021;-84
2021/09/17 09:42:18;;;;;;;10.55;4.63;;;31.00;36.90;;;;;;5067229;28;20063;-82
2021/09/17 09:45:16;;;;;;;6.53;4.50;;;31.10;36.50;;;;;;5066625;28;20024;-82
2021/09/17 09:47:43;;;;;;;8.50;4.15;;;31.20;36.70;;;;;;5050632;28;20128;-83
2021/09/17 09:50:18;;;;;;;6.15;4.05;;;31.30;36.80;;;;;;5051109;28;20532;-86
2021/09/17 09:52:44;;;;;;;7.53;4.38;;;31.50;36.60;;;;;;5051365;28;20028;-84
2021/09/17 09:55:10;;;;;;;5.43;4.18;;;31.50;36.30;;;;;;5066016;28;20032;-83
2021/09/17 09:57:37;;;;;;;7.72;4.53;;;31.30;35.60;;;;;;5065640;28;20135;-84
2021/09/17 10:00:08;;;;;;;8.00;4.10;;;30.70;36.00;;;;;;5051201;28;20024;-82
2021/09/17 10:02:35;;;;;;;9.30;5.00;;;30.00;36.80;;;;;;5066524;28;20048;-82
2021/09/17 10:05:01;;;;;;;12.48;6.25;;;29.40;37.40;;;;;;5050160;28;20471;-82
2021/09/17 10:07:28;;;;;;;10.93;5.80;;;29.00;38.80;;;;;;5066209;28;20071;-85
2021/09/17 10:09:55;;;;;;;10.13;6.35;;;28.50;38.60;;;;;;5066394;28;20581;-82
2021/09/17 10:12:22;;;;;;;10.93;5.90;;;28.20;39.00;;;;;;5050018;28;20379;-81
2021/09/17 10:14:48;;;;;;;8.80;4.57;;;27.90;39.30;;;;;;5050228;28;20021;-86
2021/09/17 10:17:25;;;;;;;9.23;4.90;;;27.90;39.80;;;;;;5066272;28;20090;-83
2021/09/17 10:19:52;;;;;;;14.32;4.68;;;27.80;40.00;;;;;;5066156;28;20021;-82
2021/09/17 10:22:36;;;;;;;8.05;5.15;;;28.00;40.00;;;;;;5065236;28;20025;-82
2021/09/17 10:25:26;;;;;;;8.60;5.55;;;28.40;39.70;;;;;;5065570;28;20155;-82
2021/09/17 10:28:14;;;;;;;14.65;5.35;;;28.90;39.10;;;;;;5049069;28;20025;-83
2021/09/17 10:30:42;;;;;;;11.15;4.97;;;29.20;38.30;;;;;;5065615;28;20037;-81
2021/09/17 10:33:24;;;;;;;11.45;4.93;;;29.00;38.60;;;;;;5065071;28;20029;-86
2021/09/17 10:35:50;;;;;;;9.15;5.00;;;28.90;39.00;;;;;;5050146;28;20525;-82
2021/09/17 10:38:35;;;;;;;11.18;5.05;;;29.00;39.20;;;;;;5065619;28;20037;-84
2021/09/17 10:41:03;;;;;;;12.98;5.55;;;29.50;38.00;;;;;;5049463;28;20037;-82
2021/09/17 10:43:39;;;;;;;8.68;4.65;;;29.80;38.40;;;;;;5065878;28;20025;-84
2021/09/17 10:46:24;;;;;;;7.85;4.63;;;30.10;37.60;;;;;;5066037;28;20029;-85
2021/09/17 10:48:53;;;;;;;7.25;4.43;;;30.10;37.40;;;;;;5064590;28;20111;-84
2021/09/17 10:51:40;;;;;;;11.48;4.63;;;30.30;37.70;;;;;;5065627;28;20036;-83
2021/09/17 10:54:11;;;;;;;7.38;4.22;;;30.60;36.80;;;;;;5049650;28;20036;-81
2021/09/17 10:57:01;;;;;;;8.35;4.05;;;30.40;36.80;;;;;;5065067;28;20148;-86
2021/09/17 10:59:39;;;;;;;8.73;3.90;;;30.10;37.10;;;;;;5050052;28;20029;-83
2021/09/17 11:02:06;;;;;;;7.35;4.00;;;29.90;37.30;;;;;;5050654;28;20017;-83
2021/09/17 11:04:44;;;;;;;7.13;4.38;;;29.80;37.60;;;;;;5065415;28;20031;-82
2021/09/17 11:07:23;;;;;;;9.00;4.32;;;29.80;37.10;;;;;;5065704;28;20118;-81
2021/09/17 11:09:55;;;;;;;7.03;4.88;;;29.80;38.20;;;;;;5049430;28;20406;-82
2021/09/17 11:12:21;;;;;;;10.63;5.95;;;29.80;37.50;;;;;;5049137;28;20368;-82
2021/09/17 11:15:08;;;;;;;16.27;7.35;;;29.90;37.20;;;;;;5049949;28;20024;-83
2021/09/17 11:17:47;;;;;;;13.63;6.75;;;29.70;37.40;;;;;;5064250;28;20051;-82
2021/09/17 11:20:22;;;;;;;10.00;4.83;;;29.20;37.90;;;;;;5064405;28;20058;-82
2021/09/17 11:22:52;;;;;;;9.20;4.20;;;29.00;38.40;;;;;;5063988;28;20468;-83
2021/09/17 11:25:21;;;;;;;;;;;28.70;38.60;;;;;;5050127;28;20021;-87
2021/09/17 11:27:47;;;;;;;8.38;4.05;;;28.40;38.90;;;;;;5048470;28;19927;-85
2021/09/17 11:30:13;;;;;;;7.50;4.22;;;28.40;39.10;;;;;;5064312;28;20459;-82
2021/09/17 11:32:39;;;;;;;8.68;3.78;;;28.40;39.30;;;;;;5064467;28;20040;-85
2021/09/17 11:35:06;;;;;;;9.57;4.47;;;28.40;39.40;;;;;;5064927;28;20018;-83
2021/09/17 11:37:35;;;;;;;13.55;4.65;;;28.70;39.20;;;;;;5064430;28;20047;-84
2021/09/17 11:40:06;;;;;;;6.85;3.97;;;28.80;39.30;;;;;;5064380;28;20017;-85
2021/09/17 11:42:40;;;;;;;8.10;4.45;;;28.60;39.30;;;;;;5065172;28;20468;-84
2021/09/17 11:45:17;;;;;;;8.32;4.07;;;28.50;39.10;;;;;;5049095;28;20029;-83
2021/09/17 11:47:49;;;;;;;14.90;5.43;;;28.40;39.60;;;;;;5049627;28;20102;-83
2021/09/17 11:50:16;;;;;;;14.75;7.75;;;28.50;39.50;;;;;;5065345;28;20029;-84
2021/09/17 11:52:51;;;;;;;12.35;6.88;;;28.50;39.00;;;;;;5064402;28;20098;-84
2021/09/17 11:55:28;;;;;;;10.05;5.65;;;28.30;39.30;;;;;;5064322;28;20029;-84
2021/09/17 11:57:58;;;;;;;10.32;5.05;;;28.10;40.00;;;;;;5064038;28;20080;-84
2021/09/17 12:00:27;;;;;;;;;;;27.80;40.30;;;;;;5065277;28;20064;-85
2021/09/17 12:02:56;;;;;;;7.97;4.30;;;27.50;41.00;;;;;;5048096;28;19991;-86
2021/09/17 12:05:27;;;;;;;8.93;3.80;;;27.30;41.00;;;;;;5049826;28;20032;-83
2021/09/17 12:07:54;;;;;;;5.93;4.47;;;27.10;41.30;;;;;;5064730;28;20541;-83
2021/09/17 12:10:34;;;;;;;9.38;4.28;;;26.90;41.60;;;;;;5064833;28;20067;-83
2021/09/17 12:13:09;;;;;;;7.00;4.03;;;26.70;41.80;;;;;;5064565;28;20036;-84
2021/09/17 12:15:43;;;;;;;6.60;4.10;;;26.50;42.20;;;;;;5068214;28;20025;-87
2021/09/17 12:18:20;;;;;;;6.97;3.70;;;26.50;42.20;;;;;;5068327;28;20390;-86
2021/09/17 12:20:47;;;;;;;5.43;3.55;;;26.60;42.40;;;;;;5052433;28;20038;-88
2021/09/17 12:23:19;;;;;;;7.28;4.20;;;26.60;42.00;;;;;;5055427;28;20024;-86
2021/09/17 12:25:46;;;;;;;7.47;4.22;;;26.60;42.00;;;;;;5052930;28;20102;-87
2021/09/17 12:28:18;;;;;;;7.75;4.30;;;26.50;42.00;;;;;;5057081;28;20114;-86
2021/09/17 12:30:45;;;;;;;7.22;4.20;;;26.50;42.30;;;;;;5062188;28;20029;-82
2021/09/17 12:33:20;;;;;;;7.80;4.60;;;26.40;42.40;;;;;;5062741;28;20112;-82
2021/09/17 12:35:48;;;;;;;8.70;5.03;;;26.40;42.70;;;;;;5065015;28;20076;-83
2021/09/17 12:38:16;;;;;;;14.63;5.32;;;26.30;43.00;;;;;;5068335;28;20072;-82
2021/09/17 12:40:47;;;;;;;7.55;4.63;;;26.30;43.30;;;;;;5065590;28;20060;-82
2021/09/17 12:43:16;;;;;;;8.85;4.50;;;26.30;43.50;;;;;;5064397;28;20028;-88